sensor_id;sensor_type;location;lat;lon;timestamp;temperature;humidity
15111;DHT22;7656;51.954;7.998;2023-03-19T00:00:09;10.20;99.90
15111;DHT22;7656;51.954;7.998;2023-03-19T00:04:31;9.90;99.90
15111;DHT22;7656;51.954;7.998;2023-03-19T00:08:52;10.20;99.90
15111;DHT22;7656;51.954;7.998;2023-03-19T00:13:14;10.30;99.90
15111;DHT22;7656;51.954;7.998;2023-03-19T00:17:35;10.30;99.90
15111;DHT22;7656;51.954;7.998;2023-03-19T00:21:56;10.30;99.90
15111;DHT22;7656;51.954;7.998;2023-03-19T00:26:18;10.10;99.90
15111;DHT22;7656;51.954;7.998;2023-03-19T00:30:40;9.90;99.90
15111;DHT22;7656;51.954;7.998;2023-03-19T00:35:02;9.80;99.90
15111;DHT22;7656;51.954;7.998;2023-03-19T00:39:25;9.80;99.90
15111;DHT22;7656;51.954;7.998;2023-03-19T00:43:49;9.50;99.90
15111;DHT22;7656;51.954;7.998;2023-03-19T00:48:12;9.40;99.90
15111;DHT22;7656;51.954;7.998;2023-03-19T00:52:33;9.80;99.90
15111;DHT22;7656;51.954;7.998;2023-03-19T00:56:54;9.80;99.90
15111;DHT22;7656;51.954;7.998;2023-03-19T01:01:17;9.20;99.90
15111;DHT22;7656;51.954;7.998;2023-03-19T01:05:38;9.50;99.90
15111;DHT22;7656;51.954;7.998;2023-03-19T01:09:59;9.00;99.90
15111;DHT22;7656;51.954;7.998;2023-03-19T01:14:21;9.30;99.90
15111;DHT22;7656;51.954;7.998;2023-03-19T01:18:43;9.60;99.90
15111;DHT22;7656;51.954;7.998;2023-03-19T01:23:04;9.80;99.90
15111;DHT22;7656;51.954;7.998;2023-03-19T01:27:26;9.90;99.90
15111;DHT22;7656;51.954;7.998;2023-03-19T01:31:47;10.00;99.90
15111;DHT22;7656;51.954;7.998;2023-03-19T01:36:27;9.70;99.90
15111;DHT22;7656;51.954;7.998;2023-03-19T01:40:55;9.60;99.90
15111;DHT22;7656;51.954;7.998;2023-03-19T01:45:29;9.60;99.90
15111;DHT22;7656;51.954;7.998;2023-03-19T01:50:24;9.30;99.90
15111;DHT22;7656;51.954;7.998;2023-03-19T01:55:08;9.60;99.90
15111;DHT22;7656;51.954;7.998;2023-03-19T01:59:54;9.70;99.90
15111;DHT22;7656;51.954;7.998;2023-03-19T02:04:37;9.90;99.90
15111;DHT22;7656;51.954;7.998;2023-03-19T02:09:00;10.20;99.90
15111;DHT22;7656;51.954;7.998;2023-03-19T02:13:22;10.20;99.90
15111;DHT22;7656;51.954;7.998;2023-03-19T02:17:44;10.20;99.90
15111;DHT22;7656;51.954;7.998;2023-03-19T02:22:07;10.20;99.90
15111;DHT22;7656;51.954;7.998;2023-03-19T02:26:30;10.20;99.90
15111;DHT22;7656;51.954;7.998;2023-03-19T02:30:56;9.70;99.90
15111;DHT22;7656;51.954;7.998;2023-03-19T02:35:18;9.80;99.90
15111;DHT22;7656;51.954;7.998;2023-03-19T02:39:46;9.90;99.90
15111;DHT22;7656;51.954;7.998;2023-03-19T02:44:11;9.80;99.90
15111;DHT22;7656;51.954;7.998;2023-03-19T02:48:32;10.00;99.90
15111;DHT22;7656;51.954;7.998;2023-03-19T02:52:54;9.70;99.90
15111;DHT22;7656;51.954;7.998;2023-03-19T02:57:16;9.60;99.90
15111;DHT22;7656;51.954;7.998;2023-03-19T03:01:38;9.00;99.90
15111;DHT22;7656;51.954;7.998;2023-03-19T03:05:59;8.80;99.90
15111;DHT22;7656;51.954;7.998;2023-03-19T03:10:20;8.70;99.90
15111;DHT22;7656;51.954;7.998;2023-03-19T03:14:41;8.60;99.90
15111;DHT22;7656;51.954;7.998;2023-03-19T03:19:03;8.30;99.90
15111;DHT22;7656;51.954;7.998;2023-03-19T03:23:24;8.10;99.90
15111;DHT22;7656;51.954;7.998;2023-03-19T03:27:46;8.00;99.90
15111;DHT22;7656;51.954;7.998;2023-03-19T03:32:07;8.00;99.90
15111;DHT22;7656;51.954;7.998;2023-03-19T03:36:28;7.90;99.90
15111;DHT22;7656;51.954;7.998;2023-03-19T03:40:50;8.30;99.90
15111;DHT22;7656;51.954;7.998;2023-03-19T03:45:12;8.70;99.90
15111;DHT22;7656;51.954;7.998;2023-03-19T03:49:35;8.80;99.90
15111;DHT22;7656;51.954;7.998;2023-03-19T03:53:56;8.80;99.90
15111;DHT22;7656;51.954;7.998;2023-03-19T03:58:17;8.90;99.90
15111;DHT22;7656;51.954;7.998;2023-03-19T04:02:38;8.80;99.90
15111;DHT22;7656;51.954;7.998;2023-03-19T04:07:00;8.90;99.90
15111;DHT22;7656;51.954;7.998;2023-03-19T04:11:34;9.00;99.90
15111;DHT22;7656;51.954;7.998;2023-03-19T04:15:56;9.10;99.90
15111;DHT22;7656;51.954;7.998;2023-03-19T04:20:18;9.10;99.90
15111;DHT22;7656;51.954;7.998;2023-03-19T04:24:39;9.10;99.90
15111;DHT22;7656;51.954;7.998;2023-03-19T04:29:01;9.10;99.90
15111;DHT22;7656;51.954;7.998;2023-03-19T04:33:22;9.10;99.90
15111;DHT22;7656;51.954;7.998;2023-03-19T04:37:43;9.20;99.90
15111;DHT22;7656;51.954;7.998;2023-03-19T04:42:08;9.20;99.90
15111;DHT22;7656;51.954;7.998;2023-03-19T04:46:38;9.20;99.90
15111;DHT22;7656;51.954;7.998;2023-03-19T04:50:59;9.30;99.90
15111;DHT22;7656;51.954;7.998;2023-03-19T04:55:20;9.30;99.90
15111;DHT22;7656;51.954;7.998;2023-03-19T04:59:52;9.10;99.90
15111;DHT22;7656;51.954;7.998;2023-03-19T05:04:15;9.10;99.90
15111;DHT22;7656;51.954;7.998;2023-03-19T05:08:37;9.10;99.90
15111;DHT22;7656;51.954;7.998;2023-03-19T05:12:58;9.10;99.90
15111;DHT22;7656;51.954;7.998;2023-03-19T05:17:20;9.00;99.90
15111;DHT22;7656;51.954;7.998;2023-03-19T05:22:00;8.70;99.90
15111;DHT22;7656;51.954;7.998;2023-03-19T05:26:22;8.90;99.90
15111;DHT22;7656;51.954;7.998;2023-03-19T05:31:06;8.90;99.90
15111;DHT22;7656;51.954;7.998;2023-03-19T05:35:36;8.50;99.90
15111;DHT22;7656;51.954;7.998;2023-03-19T05:40:02;8.30;99.90
15111;DHT22;7656;51.954;7.998;2023-03-19T05:44:24;7.90;99.90
15111;DHT22;7656;51.954;7.998;2023-03-19T05:48:54;8.00;99.90
15111;DHT22;7656;51.954;7.998;2023-03-19T05:53:15;8.10;99.90
15111;DHT22;7656;51.954;7.998;2023-03-19T05:57:46;7.90;99.90
15111;DHT22;7656;51.954;7.998;2023-03-19T06:02:19;8.10;99.90
15111;DHT22;7656;51.954;7.998;2023-03-19T06:06:44;8.40;99.90
15111;DHT22;7656;51.954;7.998;2023-03-19T06:11:06;8.30;99.90
15111;DHT22;7656;51.954;7.998;2023-03-19T06:15:28;8.40;99.90
15111;DHT22;7656;51.954;7.998;2023-03-19T06:19:50;8.30;99.90
15111;DHT22;7656;51.954;7.998;2023-03-19T06:24:11;8.20;99.90
15111;DHT22;7656;51.954;7.998;2023-03-19T06:28:32;8.20;99.90
15111;DHT22;7656;51.954;7.998;2023-03-19T06:32:53;8.30;99.90
15111;DHT22;7656;51.954;7.998;2023-03-19T06:37:15;8.70;99.90
15111;DHT22;7656;51.954;7.998;2023-03-19T06:41:36;8.70;99.90
15111;DHT22;7656;51.954;7.998;2023-03-19T06:46:11;8.50;99.90
15111;DHT22;7656;51.954;7.998;2023-03-19T06:50:32;8.60;99.90
15111;DHT22;7656;51.954;7.998;2023-03-19T06:54:53;8.90;99.90
15111;DHT22;7656;51.954;7.998;2023-03-19T06:59:14;8.90;99.90
15111;DHT22;7656;51.954;7.998;2023-03-19T07:03:35;9.30;99.90
15111;DHT22;7656;51.954;7.998;2023-03-19T07:07:56;9.40;99.90
15111;DHT22;7656;51.954;7.998;2023-03-19T07:12:17;9.70;99.90
15111;DHT22;7656;51.954;7.998;2023-03-19T07:16:39;10.20;99.90
15111;DHT22;7656;51.954;7.998;2023-03-19T07:21:00;10.70;99.90
15111;DHT22;7656;51.954;7.998;2023-03-19T07:29:42;15.10;99.90
15111;DHT22;7656;51.954;7.998;2023-03-19T07:34:04;15.70;99.90
15111;DHT22;7656;51.954;7.998;2023-03-19T07:38:25;16.00;99.90
15111;DHT22;7656;51.954;7.998;2023-03-19T07:42:46;16.20;99.90
15111;DHT22;7656;51.954;7.998;2023-03-19T08:26:23;29.60;96.20
15111;DHT22;7656;51.954;7.998;2023-03-19T08:30:44;27.70;99.20
15111;DHT22;7656;51.954;7.998;2023-03-19T08:35:06;25.80;99.90
15111;DHT22;7656;51.954;7.998;2023-03-19T08:39:28;24.70;99.90
15111;DHT22;7656;51.954;7.998;2023-03-19T08:43:49;24.00;99.90
15111;DHT22;7656;51.954;7.998;2023-03-19T08:48:10;23.00;99.90
15111;DHT22;7656;51.954;7.998;2023-03-19T08:52:31;22.40;99.90
15111;DHT22;7656;51.954;7.998;2023-03-19T08:56:52;21.80;99.90
15111;DHT22;7656;51.954;7.998;2023-03-19T09:01:14;21.10;99.90
15111;DHT22;7656;51.954;7.998;2023-03-19T09:05:35;21.60;99.90
15111;DHT22;7656;51.954;7.998;2023-03-19T09:09:56;24.30;99.90
15111;DHT22;7656;51.954;7.998;2023-03-19T09:14:17;24.30;99.90
15111;DHT22;7656;51.954;7.998;2023-03-19T09:18:40;23.10;99.90
15111;DHT22;7656;51.954;7.998;2023-03-19T09:23:02;22.30;99.90
15111;DHT22;7656;51.954;7.998;2023-03-19T09:27:23;21.60;99.90
15111;DHT22;7656;51.954;7.998;2023-03-19T09:31:45;21.70;99.90
15111;DHT22;7656;51.954;7.998;2023-03-19T09:36:06;22.20;99.90
15111;DHT22;7656;51.954;7.998;2023-03-19T09:40:34;22.60;99.90
15111;DHT22;7656;51.954;7.998;2023-03-19T09:44:58;25.30;99.90
15111;DHT22;7656;51.954;7.998;2023-03-19T09:49:38;27.60;99.90
15111;DHT22;7656;51.954;7.998;2023-03-19T09:54:07;28.00;99.90
15111;DHT22;7656;51.954;7.998;2023-03-19T09:58:36;25.90;99.90
15111;DHT22;7656;51.954;7.998;2023-03-19T10:08:26;21.90;99.90
15111;DHT22;7656;51.954;7.998;2023-03-19T10:18:17;19.90;99.90
15111;DHT22;7656;51.954;7.998;2023-03-19T10:22:44;19.30;99.90
15111;DHT22;7656;51.954;7.998;2023-03-19T10:27:17;18.90;99.90
15111;DHT22;7656;51.954;7.998;2023-03-19T10:36:38;18.70;99.90
15111;DHT22;7656;51.954;7.998;2023-03-19T10:45:45;25.10;99.90
15111;DHT22;7656;51.954;7.998;2023-03-19T10:50:09;25.50;99.90
15111;DHT22;7656;51.954;7.998;2023-03-19T10:54:39;23.50;99.90
15111;DHT22;7656;51.954;7.998;2023-03-19T10:59:04;20.90;99.90
15111;DHT22;7656;51.954;7.998;2023-03-19T11:08:02;19.40;99.90
15111;DHT22;7656;51.954;7.998;2023-03-19T11:12:47;19.50;99.90
15111;DHT22;7656;51.954;7.998;2023-03-19T11:17:37;19.80;99.90
15111;DHT22;7656;51.954;7.998;2023-03-19T11:26:27;21.40;99.90
15111;DHT22;7656;51.954;7.998;2023-03-19T11:40:20;23.90;99.90
15111;DHT22;7656;51.954;7.998;2023-03-19T12:04:12;23.70;99.90
15111;DHT22;7656;51.954;7.998;2023-03-19T12:13:57;23.90;99.90
15111;DHT22;7656;51.954;7.998;2023-03-19T12:23:43;25.70;99.90
15111;DHT22;7656;51.954;7.998;2023-03-19T12:28:23;26.60;99.90
15111;DHT22;7656;51.954;7.998;2023-03-19T12:42:40;23.90;99.90
15111;DHT22;7656;51.954;7.998;2023-03-19T12:47:24;23.80;99.90
15111;DHT22;7656;51.954;7.998;2023-03-19T12:51:53;24.80;99.90
15111;DHT22;7656;51.954;7.998;2023-03-19T13:10:13;28.00;98.80
15111;DHT22;7656;51.954;7.998;2023-03-19T13:19:59;28.20;95.10
15111;DHT22;7656;51.954;7.998;2023-03-19T13:24:38;29.30;94.20
15111;DHT22;7656;51.954;7.998;2023-03-19T13:29:16;29.80;92.20
15111;DHT22;7656;51.954;7.998;2023-03-19T13:33:59;29.20;92.20
15111;DHT22;7656;51.954;7.998;2023-03-19T13:38:47;28.60;92.00
15111;DHT22;7656;51.954;7.998;2023-03-19T13:43:22;29.10;91.70
15111;DHT22;7656;51.954;7.998;2023-03-19T13:47:50;27.90;92.70
15111;DHT22;7656;51.954;7.998;2023-03-19T14:05:50;24.10;96.60
15111;DHT22;7656;51.954;7.998;2023-03-19T14:10:14;22.90;99.90
15111;DHT22;7656;51.954;7.998;2023-03-19T14:19:44;23.00;99.90
15111;DHT22;7656;51.954;7.998;2023-03-19T14:28:58;21.10;99.90
15111;DHT22;7656;51.954;7.998;2023-03-19T14:37:48;20.80;99.90
15111;DHT22;7656;51.954;7.998;2023-03-19T14:42:31;20.30;99.90
15111;DHT22;7656;51.954;7.998;2023-03-19T14:47:23;20.00;99.90
15111;DHT22;7656;51.954;7.998;2023-03-19T14:52:13;19.80;99.90
15111;DHT22;7656;51.954;7.998;2023-03-19T14:56:36;18.80;99.90
15111;DHT22;7656;51.954;7.998;2023-03-19T15:00:57;18.60;99.90
15111;DHT22;7656;51.954;7.998;2023-03-19T15:05:25;18.10;99.90
15111;DHT22;7656;51.954;7.998;2023-03-19T15:09:53;17.70;99.90
15111;DHT22;7656;51.954;7.998;2023-03-19T15:14:40;17.60;99.90
15111;DHT22;7656;51.954;7.998;2023-03-19T15:19:10;17.70;99.90
15111;DHT22;7656;51.954;7.998;2023-03-19T15:23:31;18.00;99.90
15111;DHT22;7656;51.954;7.998;2023-03-19T15:28:09;18.20;99.90
15111;DHT22;7656;51.954;7.998;2023-03-19T15:32:34;18.40;99.90
15111;DHT22;7656;51.954;7.998;2023-03-19T15:37:01;18.40;99.90
15111;DHT22;7656;51.954;7.998;2023-03-19T15:41:27;18.70;99.90
15111;DHT22;7656;51.954;7.998;2023-03-19T15:45:52;18.90;99.90
15111;DHT22;7656;51.954;7.998;2023-03-19T15:50:18;18.90;99.90
15111;DHT22;7656;51.954;7.998;2023-03-19T15:54:41;19.00;99.90
15111;DHT22;7656;51.954;7.998;2023-03-19T15:59:03;18.80;99.90
15111;DHT22;7656;51.954;7.998;2023-03-19T16:03:35;18.80;99.90
15111;DHT22;7656;51.954;7.998;2023-03-19T16:08:29;18.80;99.90
15111;DHT22;7656;51.954;7.998;2023-03-19T16:12:51;18.50;99.90
15111;DHT22;7656;51.954;7.998;2023-03-19T16:17:16;18.40;99.90
15111;DHT22;7656;51.954;7.998;2023-03-19T16:21:40;17.90;99.90
15111;DHT22;7656;51.954;7.998;2023-03-19T16:26:15;17.90;99.90
15111;DHT22;7656;51.954;7.998;2023-03-19T16:30:45;17.90;99.90
15111;DHT22;7656;51.954;7.998;2023-03-19T16:35:16;17.90;99.90
15111;DHT22;7656;51.954;7.998;2023-03-19T16:39:53;17.90;99.90
15111;DHT22;7656;51.954;7.998;2023-03-19T16:44:17;17.90;99.90
15111;DHT22;7656;51.954;7.998;2023-03-19T16:48:38;17.80;99.90
15111;DHT22;7656;51.954;7.998;2023-03-19T16:53:23;17.70;99.90
15111;DHT22;7656;51.954;7.998;2023-03-19T16:57:53;17.70;99.90
15111;DHT22;7656;51.954;7.998;2023-03-19T17:02:17;17.60;99.90
15111;DHT22;7656;51.954;7.998;2023-03-19T17:06:38;17.60;99.90
15111;DHT22;7656;51.954;7.998;2023-03-19T17:10:59;17.50;99.90
15111;DHT22;7656;51.954;7.998;2023-03-19T17:15:27;17.30;99.90
15111;DHT22;7656;51.954;7.998;2023-03-19T17:19:51;17.20;99.90
15111;DHT22;7656;51.954;7.998;2023-03-19T17:24:24;17.20;99.90
15111;DHT22;7656;51.954;7.998;2023-03-19T17:28:47;17.20;99.90
15111;DHT22;7656;51.954;7.998;2023-03-19T17:33:23;17.20;99.90
15111;DHT22;7656;51.954;7.998;2023-03-19T17:37:47;17.00;99.90
15111;DHT22;7656;51.954;7.998;2023-03-19T17:42:23;16.90;99.90
15111;DHT22;7656;51.954;7.998;2023-03-19T17:46:46;16.80;99.90
15111;DHT22;7656;51.954;7.998;2023-03-19T17:51:09;16.70;99.90
15111;DHT22;7656;51.954;7.998;2023-03-19T17:55:30;16.60;99.90
15111;DHT22;7656;51.954;7.998;2023-03-19T17:59:51;16.50;99.90
15111;DHT22;7656;51.954;7.998;2023-03-19T18:04:15;16.40;99.90
15111;DHT22;7656;51.954;7.998;2023-03-19T18:08:38;16.30;99.90
15111;DHT22;7656;51.954;7.998;2023-03-19T18:12:59;16.20;99.90
15111;DHT22;7656;51.954;7.998;2023-03-19T18:17:21;16.10;99.90
15111;DHT22;7656;51.954;7.998;2023-03-19T18:21:42;16.00;99.90
15111;DHT22;7656;51.954;7.998;2023-03-19T18:26:03;15.80;99.90
15111;DHT22;7656;51.954;7.998;2023-03-19T18:30:24;15.70;99.90
15111;DHT22;7656;51.954;7.998;2023-03-19T18:34:45;15.60;99.90
15111;DHT22;7656;51.954;7.998;2023-03-19T18:39:12;15.50;99.90
15111;DHT22;7656;51.954;7.998;2023-03-19T18:43:34;15.40;99.90
15111;DHT22;7656;51.954;7.998;2023-03-19T18:47:55;15.40;99.90
15111;DHT22;7656;51.954;7.998;2023-03-19T18:52:16;15.40;99.90
15111;DHT22;7656;51.954;7.998;2023-03-19T18:56:38;15.30;99.90
15111;DHT22;7656;51.954;7.998;2023-03-19T19:00:59;15.30;99.90
15111;DHT22;7656;51.954;7.998;2023-03-19T19:05:31;15.30;99.90
15111;DHT22;7656;51.954;7.998;2023-03-19T19:09:52;15.30;99.90
15111;DHT22;7656;51.954;7.998;2023-03-19T19:14:19;15.30;99.90
15111;DHT22;7656;51.954;7.998;2023-03-19T19:18:41;15.30;99.90
15111;DHT22;7656;51.954;7.998;2023-03-19T19:23:02;15.20;99.90
15111;DHT22;7656;51.954;7.998;2023-03-19T19:27:24;15.20;99.90
15111;DHT22;7656;51.954;7.998;2023-03-19T19:31:46;15.20;99.90
15111;DHT22;7656;51.954;7.998;2023-03-19T19:36:08;15.20;99.90
15111;DHT22;7656;51.954;7.998;2023-03-19T19:40:30;15.10;99.90
15111;DHT22;7656;51.954;7.998;2023-03-19T19:44:55;15.00;99.90
15111;DHT22;7656;51.954;7.998;2023-03-19T19:49:18;14.80;99.90
15111;DHT22;7656;51.954;7.998;2023-03-19T19:53:41;14.60;99.90
15111;DHT22;7656;51.954;7.998;2023-03-19T19:58:02;14.40;99.90
15111;DHT22;7656;51.954;7.998;2023-03-19T20:02:25;14.30;99.90
15111;DHT22;7656;51.954;7.998;2023-03-19T20:06:50;14.20;99.90
15111;DHT22;7656;51.954;7.998;2023-03-19T20:15:41;14.10;99.90
15111;DHT22;7656;51.954;7.998;2023-03-19T20:20:04;13.80;99.90
15111;DHT22;7656;51.954;7.998;2023-03-19T20:24:40;13.20;99.90
15111;DHT22;7656;51.954;7.998;2023-03-19T20:29:01;12.80;99.90
15111;DHT22;7656;51.954;7.998;2023-03-19T20:33:23;12.50;99.90
15111;DHT22;7656;51.954;7.998;2023-03-19T20:37:45;12.20;99.90
15111;DHT22;7656;51.954;7.998;2023-03-19T20:42:14;12.10;99.90
15111;DHT22;7656;51.954;7.998;2023-03-19T20:46:36;12.20;99.90
15111;DHT22;7656;51.954;7.998;2023-03-19T20:50:58;12.30;99.90
15111;DHT22;7656;51.954;7.998;2023-03-19T20:55:23;12.20;99.90
15111;DHT22;7656;51.954;7.998;2023-03-19T20:59:45;12.20;99.90
15111;DHT22;7656;51.954;7.998;2023-03-19T21:04:16;12.20;99.90
15111;DHT22;7656;51.954;7.998;2023-03-19T21:08:40;12.00;99.90
15111;DHT22;7656;51.954;7.998;2023-03-19T21:13:15;12.00;99.90
15111;DHT22;7656;51.954;7.998;2023-03-19T21:17:38;12.00;99.90
15111;DHT22;7656;51.954;7.998;2023-03-19T21:21:59;12.10;99.90
15111;DHT22;7656;51.954;7.998;2023-03-19T21:26:22;12.00;99.90
15111;DHT22;7656;51.954;7.998;2023-03-19T21:30:44;12.00;99.90
15111;DHT22;7656;51.954;7.998;2023-03-19T21:35:19;12.00;99.90
15111;DHT22;7656;51.954;7.998;2023-03-19T21:39:42;12.00;99.90
15111;DHT22;7656;51.954;7.998;2023-03-19T21:44:12;12.00;99.90
15111;DHT22;7656;51.954;7.998;2023-03-19T21:48:37;12.00;99.90
15111;DHT22;7656;51.954;7.998;2023-03-19T21:53:00;12.00;99.90
15111;DHT22;7656;51.954;7.998;2023-03-19T21:57:21;11.90;99.90
15111;DHT22;7656;51.954;7.998;2023-03-19T22:01:43;11.90;99.90
15111;DHT22;7656;51.954;7.998;2023-03-19T22:06:05;11.90;99.90
15111;DHT22;7656;51.954;7.998;2023-03-19T22:10:27;11.90;99.90
15111;DHT22;7656;51.954;7.998;2023-03-19T22:14:49;11.90;99.90
15111;DHT22;7656;51.954;7.998;2023-03-19T22:19:14;11.90;99.90
15111;DHT22;7656;51.954;7.998;2023-03-19T22:23:37;11.90;99.90
15111;DHT22;7656;51.954;7.998;2023-03-19T22:27:58;11.90;99.90
15111;DHT22;7656;51.954;7.998;2023-03-19T22:32:19;11.70;99.90
15111;DHT22;7656;51.954;7.998;2023-03-19T22:36:41;11.60;99.90
15111;DHT22;7656;51.954;7.998;2023-03-19T22:41:03;11.60;99.90
15111;DHT22;7656;51.954;7.998;2023-03-19T22:45:32;11.60;99.90
15111;DHT22;7656;51.954;7.998;2023-03-19T22:49:53;11.50;99.90
15111;DHT22;7656;51.954;7.998;2023-03-19T22:54:14;11.30;99.90
15111;DHT22;7656;51.954;7.998;2023-03-19T22:58:35;11.20;99.90
15111;DHT22;7656;51.954;7.998;2023-03-19T23:02:56;11.20;99.90
15111;DHT22;7656;51.954;7.998;2023-03-19T23:07:17;11.10;99.90
15111;DHT22;7656;51.954;7.998;2023-03-19T23:11:38;11.00;99.90
15111;DHT22;7656;51.954;7.998;2023-03-19T23:16:00;10.90;99.90
15111;DHT22;7656;51.954;7.998;2023-03-19T23:20:23;10.80;99.90
15111;DHT22;7656;51.954;7.998;2023-03-19T23:24:46;10.80;99.90
15111;DHT22;7656;51.954;7.998;2023-03-19T23:29:19;10.70;99.90
15111;DHT22;7656;51.954;7.998;2023-03-19T23:33:41;10.70;99.90
15111;DHT22;7656;51.954;7.998;2023-03-19T23:38:02;10.70;99.90
15111;DHT22;7656;51.954;7.998;2023-03-19T23:42:28;10.60;99.90
15111;DHT22;7656;51.954;7.998;2023-03-19T23:46:50;10.50;99.90
15111;DHT22;7656;51.954;7.998;2023-03-19T23:51:13;10.50;99.90
15111;DHT22;7656;51.954;7.998;2023-03-19T23:55:34;10.40;99.90
15111;DHT22;7656;51.954;7.998;2023-03-19T23:59:56;10.30;99.90
